createdAt,value
2023-04-21T00:00:54.004Z,7.31
2023-04-21T00:03:22.571Z,7.32
2023-04-21T00:05:50.819Z,7.30
2023-04-21T00:08:18.484Z,7.29
2023-04-21T00:10:46.690Z,7.31
2023-04-21T00:13:13.692Z,7.28
2023-04-21T00:15:40.180Z,7.15
2023-04-21T00:18:07.045Z,7.26
2023-04-21T00:20:33.693Z,7.27
2023-04-21T00:23:00.587Z,7.31
2023-04-21T00:25:27.335Z,7.26
2023-04-21T00:27:53.887Z,7.17
2023-04-21T00:30:20.489Z,7.26
2023-04-21T00:32:47.289Z,7.18
2023-04-21T00:35:13.809Z,7.27
2023-04-21T00:37:41.626Z,7.23
2023-04-21T00:40:09.059Z,7.17
2023-04-21T00:42:35.662Z,7.16
2023-04-21T00:45:03.097Z,7.15
2023-04-21T00:47:29.743Z,7.18
2023-04-21T00:49:57.604Z,7.22
2023-04-21T00:52:24.368Z,7.22
2023-04-21T00:54:51.002Z,7.22
2023-04-21T00:57:17.486Z,7.24
2023-04-21T00:59:43.874Z,7.28
2023-04-21T01:02:10.489Z,7.17
2023-04-21T01:04:39.546Z,7.27
2023-04-21T01:07:07.469Z,7.28
2023-04-21T01:09:34.771Z,7.27
2023-04-21T01:12:05.174Z,7.27
2023-04-21T01:14:31.884Z,6.94
2023-04-21T01:16:59.159Z,7.15
2023-04-21T01:19:28.546Z,7.24
2023-04-21T01:21:57.688Z,7.22
2023-04-21T01:24:27.485Z,7.24
2023-04-21T01:26:53.915Z,7.26
2023-04-21T01:29:20.688Z,7.27
2023-04-21T01:31:48.231Z,7.29
2023-04-21T01:34:14.739Z,7.28
2023-04-21T01:36:41.274Z,7.29
2023-04-21T01:39:07.716Z,7.31
2023-04-21T01:41:34.250Z,7.31
2023-04-21T01:44:01.075Z,7.17
2023-04-21T01:46:27.953Z,7.27
2023-04-21T01:48:54.507Z,7.29
2023-04-21T01:51:21.605Z,7.28
2023-04-21T01:53:47.991Z,7.26
2023-04-21T01:56:15.437Z,7.29
2023-04-21T01:58:41.860Z,7.28
2023-04-21T02:01:08.260Z,7.31
2023-04-21T02:03:35.181Z,7.35
2023-04-21T02:06:01.691Z,7.34
2023-04-21T02:08:28.130Z,7.35
2023-04-21T02:10:54.533Z,7.33
2023-04-21T02:13:21.005Z,7.37
2023-04-21T02:15:47.447Z,7.37
2023-04-21T02:18:15.048Z,7.36
2023-04-21T02:20:41.640Z,7.36
2023-04-21T02:23:08.112Z,7.39
2023-04-21T02:25:34.525Z,7.39
2023-04-21T02:28:00.996Z,7.37
2023-04-21T02:30:27.883Z,7.37
2023-04-21T02:32:54.472Z,7.35
2023-04-21T02:35:21.029Z,7.36
2023-04-21T02:37:47.509Z,7.41
2023-04-21T02:40:13.935Z,7.39
2023-04-21T02:42:40.368Z,7.42
2023-04-21T02:45:07.429Z,7.43
2023-04-21T02:47:33.845Z,7.44
2023-04-21T02:50:00.422Z,7.42
2023-04-21T02:52:26.823Z,7.38
2023-04-21T02:54:53.248Z,7.36
2023-04-21T02:57:19.629Z,7.33
2023-04-21T02:59:46.028Z,7.27
2023-04-21T03:02:12.483Z,7.27
2023-04-21T03:04:39.222Z,7.23
2023-04-21T03:07:05.735Z,7.15
2023-04-21T03:09:32.174Z,7.15
2023-04-21T03:11:58.560Z,7.12
2023-04-21T03:14:24.934Z,7.08
2023-04-21T03:16:51.517Z,7.00
2023-04-21T03:19:18.264Z,7.01
2023-04-21T03:21:44.889Z,6.99
2023-04-21T03:24:11.324Z,6.97
2023-04-21T03:26:40.647Z,6.78
2023-04-21T03:29:07.323Z,6.87
2023-04-21T03:31:33.853Z,6.83
2023-04-21T03:34:00.268Z,6.96
2023-04-21T03:36:26.723Z,6.91
2023-04-21T03:38:53.211Z,6.87
2023-04-21T03:41:20.221Z,6.78
2023-04-21T03:43:46.621Z,6.64
2023-04-21T03:46:20.816Z,6.72
2023-04-21T03:48:48.346Z,6.72
2023-04-21T03:51:15.125Z,6.71
2023-04-21T03:53:41.978Z,6.68
2023-04-21T03:56:08.903Z,6.67
2023-04-21T03:58:35.663Z,6.66
2023-04-21T04:01:02.155Z,6.65
2023-04-21T04:03:28.744Z,6.63
2023-04-21T04:05:56.152Z,6.59
2023-04-21T04:08:22.723Z,6.60
2023-04-21T04:10:49.177Z,6.60
2023-04-21T04:13:15.902Z,6.60
2023-04-21T04:15:42.384Z,6.54
2023-04-21T04:18:08.921Z,6.49
2023-04-21T04:20:35.362Z,6.56
2023-04-21T04:23:01.793Z,6.56
2023-04-21T04:25:28.241Z,6.54
2023-04-21T04:27:55.597Z,6.53
2023-04-21T04:30:23.936Z,6.53
2023-04-21T04:32:50.421Z,6.48
2023-04-21T04:35:16.979Z,6.47
2023-04-21T04:37:43.412Z,6.25
2023-04-21T04:40:13.281Z,6.35
2023-04-21T04:42:40.114Z,6.32
2023-04-21T04:45:08.621Z,6.28
2023-04-21T04:47:35.750Z,6.15
2023-04-21T04:50:02.317Z,6.17
2023-04-21T04:52:28.799Z,6.15
2023-04-21T04:54:55.485Z,6.09
2023-04-21T04:57:21.960Z,6.11
2023-04-21T04:59:48.666Z,6.12
2023-04-21T05:02:15.745Z,6.07
2023-04-21T05:04:42.423Z,6.16
2023-04-21T05:07:08.985Z,6.13
2023-04-21T05:09:35.834Z,6.20
2023-04-21T05:12:02.392Z,6.19
2023-04-21T05:14:28.848Z,6.25
2023-04-21T05:16:55.430Z,6.30
2023-04-21T05:19:21.886Z,6.32
2023-04-21T05:21:48.277Z,6.37
2023-04-21T05:24:14.899Z,6.41
2023-04-21T05:26:41.309Z,6.46
2023-04-21T05:29:07.757Z,6.51
2023-04-21T05:31:34.837Z,5.97
2023-04-21T05:34:01.374Z,6.65
2023-04-21T05:36:27.938Z,6.68
2023-04-21T05:38:55.064Z,6.81
2023-04-21T05:41:22.547Z,6.96
2023-04-21T05:43:49.186Z,7.12
2023-04-21T05:46:15.766Z,7.32
2023-04-21T05:48:42.304Z,7.45
2023-04-21T05:51:13.104Z,7.66
2023-04-21T05:53:40.229Z,7.82
2023-04-21T05:56:08.731Z,7.96
2023-04-21T05:58:35.926Z,8.19
2023-04-21T06:01:02.540Z,8.29
2023-04-21T06:03:31.363Z,8.39
2023-04-21T06:05:59.244Z,8.62
2023-04-21T06:08:25.783Z,8.80
2023-04-21T06:10:52.244Z,8.87
2023-04-21T06:13:18.851Z,9.03
2023-04-21T06:15:45.303Z,9.33
2023-04-21T06:18:11.779Z,9.59
2023-04-21T06:20:38.227Z,9.67
2023-04-21T06:23:04.661Z,9.71
2023-04-21T06:25:31.142Z,10.06
2023-04-21T06:27:57.579Z,10.31
2023-04-21T06:30:24.049Z,10.47
2023-04-21T06:32:50.669Z,10.66
2023-04-21T06:35:17.334Z,10.58
2023-04-21T06:37:43.766Z,10.70
2023-04-21T06:40:12.349Z,10.58
2023-04-21T06:42:38.728Z,10.92
2023-04-21T06:45:07.083Z,11.03
2023-04-21T06:47:33.585Z,10.95
2023-04-21T06:50:00.130Z,11.14
2023-04-21T06:52:26.625Z,11.36
2023-04-21T06:54:53.023Z,11.51
2023-04-21T06:57:19.514Z,11.63
2023-04-21T06:59:45.938Z,11.57
2023-04-21T07:02:12.385Z,11.99
2023-04-21T07:04:38.910Z,11.78
2023-04-21T07:07:05.635Z,11.99
2023-04-21T07:09:33.864Z,12.65
2023-04-21T07:12:01.035Z,12.84
2023-04-21T07:14:27.441Z,13.05
2023-04-21T07:16:55.489Z,12.73
2023-04-21T07:19:21.996Z,12.84
2023-04-21T07:21:48.561Z,12.58
2023-04-21T07:24:14.995Z,12.85
2023-04-21T07:26:41.412Z,12.83
2023-04-21T07:29:07.862Z,12.88
2023-04-21T07:31:34.452Z,13.65
2023-04-21T07:34:01.199Z,13.68
2023-04-21T07:36:30.999Z,13.81
2023-04-21T07:38:57.721Z,12.95
2023-04-21T07:41:24.186Z,12.71
2023-04-21T07:43:52.548Z,13.32
2023-04-21T07:46:21.534Z,13.64
2023-04-21T07:48:48.204Z,14.22
2023-04-21T07:51:17.776Z,14.69
2023-04-21T07:53:44.331Z,15.19
2023-04-21T07:56:12.946Z,15.39
2023-04-21T07:58:39.503Z,15.28
2023-04-21T08:01:05.968Z,15.69
2023-04-21T08:03:32.616Z,15.51
2023-04-21T08:05:59.255Z,15.85
2023-04-21T08:08:25.913Z,15.57
2023-04-21T08:10:52.394Z,15.02
2023-04-21T08:13:18.972Z,14.16
2023-04-21T08:15:45.600Z,14.13
2023-04-21T08:18:12.128Z,14.02
2023-04-21T08:20:38.701Z,13.70
2023-04-21T08:23:05.210Z,13.44
2023-04-21T08:25:31.649Z,13.04
2023-04-21T08:27:58.103Z,12.53
2023-04-21T08:30:27.336Z,12.61
2023-04-21T08:32:53.996Z,12.29
2023-04-21T08:35:20.525Z,12.01
2023-04-21T08:37:46.973Z,12.00
2023-04-21T08:40:13.550Z,12.26
2023-04-21T08:42:40.007Z,11.89
2023-04-21T08:45:07.109Z,12.05
2023-04-21T08:47:33.955Z,12.41
2023-04-21T08:50:00.581Z,13.05
2023-04-21T08:52:27.010Z,13.17
2023-04-21T08:54:53.554Z,12.77
2023-04-21T08:57:20.015Z,12.83
2023-04-21T08:59:46.556Z,12.96
2023-04-21T09:02:16.130Z,13.18
2023-04-21T09:04:45.317Z,12.83
2023-04-21T09:07:12.865Z,12.35
2023-04-21T09:09:53.748Z,12.31
2023-04-21T09:12:20.461Z,12.46
2023-04-21T09:14:47.253Z,12.72
2023-04-21T09:17:16.719Z,12.56
2023-04-21T09:19:43.880Z,12.73
2023-04-21T09:22:15.585Z,13.04
2023-04-21T09:25:00.548Z,13.45
2023-04-21T09:27:27.190Z,13.60
2023-04-21T09:29:53.682Z,14.24
2023-04-21T09:32:20.661Z,14.37
2023-04-21T09:34:47.433Z,14.27
2023-04-21T09:37:16.619Z,14.78
2023-04-21T09:40:03.507Z,14.60
2023-04-21T09:42:38.898Z,14.73
2023-04-21T09:45:28.420Z,14.62
2023-04-21T09:47:59.113Z,14.56
2023-04-21T09:51:07.019Z,14.97
2023-04-21T09:53:17.083Z,15.37
2023-04-21T09:55:48.216Z,15.17
2023-04-21T09:58:17.496Z,15.16
2023-04-21T10:00:44.410Z,15.10
2023-04-21T10:03:13.868Z,14.66
2023-04-21T10:05:42.687Z,14.91
2023-04-21T10:08:11.647Z,14.20
2023-04-21T10:10:39.563Z,14.19
2023-04-21T10:13:06.657Z,14.48
2023-04-21T10:15:42.191Z,14.59
2023-04-21T10:18:29.260Z,14.72
2023-04-21T10:21:07.192Z,14.78
2023-04-21T10:23:36.471Z,14.84
2023-04-21T10:26:20.400Z,14.97
2023-04-21T10:29:12.247Z,14.90
2023-04-21T10:31:54.430Z,15.06
2023-04-21T10:34:22.413Z,15.37
2023-04-21T10:36:56.099Z,15.19
2023-04-21T10:39:29.580Z,15.49
2023-04-21T10:42:00.600Z,15.55
2023-04-21T10:44:29.632Z,15.32
2023-04-21T10:46:58.914Z,15.20
2023-04-21T10:49:27.617Z,15.22
2023-04-21T10:52:03.119Z,15.36
2023-04-21T10:54:47.921Z,15.38
2023-04-21T10:57:16.669Z,15.07
2023-04-21T10:59:44.020Z,14.44
2023-04-21T11:02:15.508Z,14.89
2023-04-21T11:04:48.886Z,15.01
2023-04-21T11:07:16.788Z,15.11
2023-04-21T11:09:44.543Z,15.09
2023-04-21T11:12:15.923Z,15.16
2023-04-21T11:14:44.465Z,15.47
2023-04-21T11:17:13.273Z,15.35
2023-04-21T11:19:39.919Z,15.72
2023-04-21T11:22:06.380Z,15.80
2023-04-21T11:24:33.114Z,16.14
2023-04-21T11:27:01.995Z,16.31
2023-04-21T11:29:31.446Z,16.37
2023-04-21T11:31:59.081Z,16.33
2023-04-21T11:34:27.290Z,16.49
2023-04-21T11:36:54.025Z,16.14
2023-04-21T11:39:22.125Z,16.53
2023-04-21T11:41:50.707Z,16.29
2023-04-21T11:44:40.811Z,16.39
2023-04-21T11:47:23.014Z,16.20
2023-04-21T11:49:52.223Z,16.19
2023-04-21T11:52:29.652Z,16.32
2023-04-21T11:55:05.603Z,16.32
2023-04-21T11:57:33.575Z,16.02
2023-04-21T12:00:02.196Z,16.55
2023-04-21T12:02:31.171Z,16.82
2023-04-21T12:05:03.985Z,16.85
2023-04-21T12:07:39.060Z,16.94
2023-04-21T12:10:17.610Z,16.95
2023-04-21T12:12:44.204Z,16.69
2023-04-21T12:15:19.875Z,16.99
2023-04-21T12:17:48.610Z,17.18
2023-04-21T12:20:23.101Z,17.20
2023-04-21T12:22:50.408Z,17.01
2023-04-21T12:25:17.117Z,17.04
2023-04-21T12:27:54.099Z,17.18
2023-04-21T12:30:21.345Z,17.06
2023-04-21T12:32:48.231Z,16.85
2023-04-21T12:35:15.247Z,16.68
2023-04-21T12:37:41.704Z,17.17
2023-04-21T12:40:08.649Z,17.37
2023-04-21T12:42:37.489Z,17.33
2023-04-21T12:45:05.424Z,17.21
2023-04-21T12:47:32.098Z,16.73
2023-04-21T12:49:58.620Z,17.00
2023-04-21T12:52:25.025Z,17.05
2023-04-21T12:54:51.608Z,17.11
2023-04-21T12:57:18.090Z,17.20
2023-04-21T12:59:46.397Z,17.18
2023-04-21T13:02:13.214Z,17.20
2023-04-21T13:04:41.998Z,17.34
2023-04-21T13:07:08.794Z,17.35
2023-04-21T13:09:35.295Z,17.10
2023-04-21T13:12:02.061Z,17.29
2023-04-21T13:14:28.563Z,17.67
2023-04-21T13:16:55.047Z,17.76
2023-04-21T13:19:21.625Z,17.48
2023-04-21T13:21:48.222Z,17.45
2023-04-21T13:24:15.012Z,17.31
2023-04-21T13:26:41.648Z,17.33
2023-04-21T13:29:08.181Z,17.22
2023-04-21T13:31:34.942Z,17.11
2023-04-21T13:34:01.695Z,17.20
2023-04-21T13:36:28.541Z,17.23
2023-04-21T13:38:56.220Z,17.70
2023-04-21T13:41:22.823Z,17.52
2023-04-21T13:43:49.900Z,17.33
2023-04-21T13:46:16.398Z,17.88
2023-04-21T13:48:44.994Z,17.87
2023-04-21T13:51:11.463Z,18.02
2023-04-21T13:53:37.861Z,18.00
2023-04-21T13:56:04.622Z,17.63
2023-04-21T13:58:31.338Z,17.82
2023-04-21T14:00:57.841Z,18.09
2023-04-21T14:03:24.483Z,18.42
2023-04-21T14:05:51.203Z,18.34
2023-04-21T14:08:18.082Z,18.37
2023-04-21T14:10:44.590Z,18.42
2023-04-21T14:13:17.316Z,18.30
2023-04-21T14:15:53.761Z,17.55
2023-04-21T14:18:20.321Z,17.62
2023-04-21T14:20:47.182Z,17.90
2023-04-21T14:23:13.688Z,17.96
2023-04-21T14:25:40.312Z,18.02
2023-04-21T14:28:08.299Z,18.35
2023-04-21T14:30:38.544Z,17.85
2023-04-21T14:33:05.271Z,18.33
2023-04-21T14:35:31.843Z,18.18
2023-04-21T14:37:58.609Z,17.60
2023-04-21T14:40:25.136Z,17.85
2023-04-21T14:42:51.553Z,18.17
2023-04-21T14:45:17.979Z,18.18
2023-04-21T14:47:44.536Z,17.75
2023-04-21T14:50:11.096Z,17.41
2023-04-21T14:52:37.623Z,17.54
2023-04-21T14:55:04.422Z,17.38
2023-04-21T14:57:30.966Z,17.68
2023-04-21T14:59:57.424Z,17.72
2023-04-21T15:02:24.112Z,17.76
2023-04-21T15:04:50.868Z,17.71
2023-04-21T15:07:23.358Z,17.52
2023-04-21T15:09:51.250Z,17.71
2023-04-21T15:12:17.729Z,17.86
2023-04-21T15:14:44.285Z,17.78
2023-04-21T15:17:10.866Z,17.63
2023-04-21T15:19:37.720Z,17.59
2023-04-21T15:22:04.957Z,17.65
2023-04-21T15:24:31.568Z,17.59
2023-04-21T15:26:58.058Z,17.72
2023-04-21T15:29:24.534Z,17.77
2023-04-21T15:31:51.014Z,17.79
2023-04-21T15:34:17.421Z,17.88
2023-04-21T15:36:43.992Z,18.00
2023-04-21T15:39:13.832Z,17.90
2023-04-21T15:41:40.637Z,18.00
2023-04-21T15:44:07.281Z,17.93
2023-04-21T15:46:34.591Z,18.00
2023-04-21T15:49:01.350Z,17.81
2023-04-21T15:51:28.165Z,17.85
2023-04-21T15:53:54.682Z,17.78
2023-04-21T15:56:21.190Z,17.61
2023-04-21T15:58:47.761Z,17.53
2023-04-21T16:01:14.541Z,17.64
2023-04-21T16:03:41.299Z,17.48
2023-04-21T16:06:08.061Z,17.63
2023-04-21T16:08:34.576Z,17.06
2023-04-21T16:11:01.484Z,15.65
2023-04-21T16:13:28.016Z,14.89
2023-04-21T16:15:54.606Z,14.35
2023-04-21T16:18:21.078Z,14.27
2023-04-21T16:20:47.804Z,14.14
2023-04-21T16:23:15.139Z,13.86
2023-04-21T16:25:42.028Z,13.46
2023-04-21T16:28:09.438Z,13.56
2023-04-21T16:30:36.185Z,13.65
2023-04-21T16:33:03.059Z,13.41
2023-04-21T16:35:29.594Z,13.34
2023-04-21T16:37:56.279Z,13.33
2023-04-21T16:40:24.106Z,13.28
2023-04-21T16:42:50.832Z,13.39
2023-04-21T16:45:17.412Z,13.47
2023-04-21T16:47:44.026Z,13.36
2023-04-21T16:50:10.837Z,13.27
2023-04-21T16:52:37.333Z,13.61
2023-04-21T16:55:03.992Z,13.51
2023-04-21T16:57:31.152Z,13.44
2023-04-21T17:00:00.545Z,13.49
2023-04-21T17:02:27.181Z,13.45
2023-04-21T17:04:53.776Z,13.56
2023-04-21T17:07:20.395Z,13.75
2023-04-21T17:09:46.857Z,13.89
2023-04-21T17:12:13.350Z,14.06
2023-04-21T17:14:40.323Z,14.12
2023-04-21T17:17:07.218Z,14.17
2023-04-21T17:19:33.959Z,14.22
2023-04-21T17:22:00.513Z,14.29
2023-04-21T17:24:29.565Z,14.36
2023-04-21T17:26:59.760Z,14.41
2023-04-21T17:29:26.846Z,14.42
2023-04-21T17:31:53.401Z,14.27
2023-04-21T17:34:19.938Z,14.28
2023-04-21T17:36:46.760Z,14.28
2023-04-21T17:39:14.007Z,14.38
2023-04-21T17:41:41.911Z,14.48
2023-04-21T17:44:08.371Z,14.56
2023-04-21T17:46:34.993Z,14.60
2023-04-21T17:49:01.862Z,14.54
2023-04-21T17:51:28.676Z,14.56
2023-04-21T17:53:55.219Z,14.45
2023-04-21T17:56:22.407Z,14.33
2023-04-21T17:58:48.836Z,14.44
2023-04-21T18:01:15.385Z,14.45
2023-04-21T18:03:42.908Z,14.46
2023-04-21T18:06:11.282Z,14.48
2023-04-21T18:08:38.294Z,14.56
2023-04-21T18:11:04.878Z,14.58
2023-04-21T18:13:31.313Z,14.55
2023-04-21T18:15:58.012Z,14.45
2023-04-21T18:18:25.500Z,14.44
2023-04-21T18:20:52.075Z,14.45
2023-04-21T18:23:18.497Z,14.29
2023-04-21T18:25:45.412Z,14.44
2023-04-21T18:28:12.658Z,14.49
2023-04-21T18:30:39.844Z,14.43
2023-04-21T18:33:06.434Z,14.42
2023-04-21T18:35:33.947Z,14.34
2023-04-21T18:38:00.698Z,14.33
2023-04-21T18:40:27.456Z,14.30
2023-04-21T18:42:54.151Z,14.04
2023-04-21T18:45:20.728Z,14.04
2023-04-21T18:47:47.256Z,13.98
2023-04-21T18:50:13.808Z,14.01
2023-04-21T18:52:40.565Z,13.95
2023-04-21T18:55:07.379Z,13.76
2023-04-21T18:57:33.964Z,13.46
2023-04-21T19:00:00.465Z,13.33
2023-04-21T19:02:29.156Z,13.10
2023-04-21T19:04:55.969Z,12.90
2023-04-21T19:07:22.433Z,12.68
2023-04-21T19:09:48.892Z,12.40
2023-04-21T19:12:15.982Z,12.23
2023-04-21T19:14:47.265Z,12.18
2023-04-21T19:17:15.089Z,12.10
2023-04-21T19:19:42.188Z,12.06
2023-04-21T19:22:08.613Z,11.95
2023-04-21T19:24:35.803Z,12.06
2023-04-21T19:27:03.434Z,12.13
2023-04-21T19:29:30.327Z,12.15
2023-04-21T19:31:56.863Z,12.09
2023-04-21T19:34:23.380Z,12.00
2023-04-21T19:36:51.601Z,11.85
2023-04-21T19:39:18.228Z,11.56
2023-04-21T19:41:44.628Z,11.51
2023-04-21T19:44:11.093Z,11.63
2023-04-21T19:46:37.725Z,11.70
2023-04-21T19:49:04.264Z,11.72
2023-04-21T19:51:30.957Z,11.77
2023-04-21T19:54:10.077Z,11.82
2023-04-21T19:56:38.260Z,11.87
2023-04-21T19:59:05.543Z,11.89
2023-04-21T20:01:33.592Z,11.87
2023-04-21T20:04:00.781Z,11.86
2023-04-21T20:06:28.542Z,11.88
2023-04-21T20:08:55.831Z,11.83
2023-04-21T20:11:23.137Z,11.68
2023-04-21T20:13:50.211Z,11.57
2023-04-21T20:16:18.221Z,11.67
2023-04-21T20:18:44.842Z,11.64
2023-04-21T20:21:11.388Z,11.57
2023-04-21T20:23:37.824Z,11.60
2023-04-21T20:26:04.316Z,11.57
2023-04-21T20:28:30.734Z,11.56
2023-04-21T20:30:57.259Z,11.55
2023-04-21T20:33:23.672Z,11.53
2023-04-21T20:35:50.154Z,11.56
2023-04-21T20:38:16.619Z,11.49
2023-04-21T20:40:43.088Z,11.23
2023-04-21T20:43:10.309Z,11.16
2023-04-21T20:45:37.739Z,11.20
2023-04-21T20:48:04.905Z,11.28
2023-04-21T20:50:31.359Z,11.33
2023-04-21T20:52:58.158Z,11.40
2023-04-21T20:55:24.694Z,11.36
2023-04-21T20:57:51.287Z,11.32
2023-04-21T21:00:17.932Z,11.17
2023-04-21T21:02:44.598Z,11.02
2023-04-21T21:05:11.226Z,10.63
2023-04-21T21:07:37.759Z,10.86
2023-04-21T21:10:05.088Z,10.95
2023-04-21T21:12:31.646Z,11.03
2023-04-21T21:14:58.045Z,11.04
2023-04-21T21:17:24.559Z,11.05
2023-04-21T21:19:50.990Z,11.06
2023-04-21T21:22:17.452Z,11.03
2023-04-21T21:24:43.928Z,11.00
2023-04-21T21:27:10.722Z,11.05
2023-04-21T21:29:37.405Z,11.02
2023-04-21T21:32:04.125Z,11.05
2023-04-21T21:34:30.578Z,10.96
2023-04-21T21:36:57.016Z,10.96
2023-04-21T21:39:23.967Z,10.83
2023-04-21T21:41:50.487Z,10.70
2023-04-21T21:44:16.983Z,10.72
2023-04-21T21:46:43.618Z,10.72
2023-04-21T21:49:11.138Z,10.71
2023-04-21T21:51:37.562Z,10.66
2023-04-21T21:54:04.075Z,10.63
2023-04-21T21:56:30.620Z,10.63
2023-04-21T21:58:57.050Z,10.62
2023-04-21T22:01:23.526Z,10.62
2023-04-21T22:03:51.733Z,10.56
2023-04-21T22:06:18.636Z,10.46
2023-04-21T22:08:45.558Z,10.41
2023-04-21T22:11:12.157Z,10.36
2023-04-21T22:13:38.591Z,10.31
2023-04-21T22:16:06.924Z,10.20
2023-04-21T22:18:33.477Z,10.13
2023-04-21T22:20:59.924Z,10.09
2023-04-21T22:23:26.805Z,10.05
2023-04-21T22:25:53.236Z,10.01
2023-04-21T22:28:19.694Z,9.94
2023-04-21T22:30:46.171Z,9.93
2023-04-21T22:33:12.725Z,9.93
2023-04-21T22:35:39.244Z,9.91
2023-04-21T22:38:05.737Z,9.90
2023-04-21T22:40:32.225Z,9.88
2023-04-21T22:42:58.744Z,9.85
2023-04-21T22:45:25.239Z,9.82
2023-04-21T22:47:51.717Z,9.72
2023-04-21T22:50:19.747Z,9.65
2023-04-21T22:52:46.186Z,9.57
2023-04-21T22:55:12.597Z,9.48
2023-04-21T22:57:39.067Z,9.45
2023-04-21T23:00:09.596Z,9.40
2023-04-21T23:02:36.536Z,9.37
2023-04-21T23:05:03.255Z,9.37
2023-04-21T23:07:29.646Z,9.37
2023-04-21T23:09:56.185Z,9.40
2023-04-21T23:12:22.717Z,9.41
2023-04-21T23:14:49.270Z,9.39
2023-04-21T23:17:15.821Z,9.38
2023-04-21T23:19:42.240Z,9.37
2023-04-21T23:22:08.652Z,9.32
2023-04-21T23:24:35.515Z,9.29
2023-04-21T23:27:02.278Z,9.23
2023-04-21T23:29:28.707Z,9.19
2023-04-21T23:31:55.351Z,9.15
2023-04-21T23:34:21.946Z,9.13
2023-04-21T23:36:48.364Z,9.13
2023-04-21T23:39:14.782Z,9.08
2023-04-21T23:41:41.651Z,9.14
2023-04-21T23:44:08.100Z,9.13
2023-04-21T23:46:34.560Z,9.08
2023-04-21T23:49:01.083Z,9.07
2023-04-21T23:51:28.194Z,9.03
2023-04-21T23:53:54.810Z,9.02
2023-04-21T23:56:21.234Z,8.99
2023-04-21T23:58:47.701Z,8.98
